sensor_id;sensor_type;location;lat;lon;timestamp;temperature;humidity
16273;DHT22;8244;50.044;9.006;2023-09-19T00:00:41;17.90;99.90
16273;DHT22;8244;50.044;9.006;2023-09-19T00:05:44;17.90;99.90
16273;DHT22;8244;50.044;9.006;2023-09-19T00:10:47;17.90;99.90
16273;DHT22;8244;50.044;9.006;2023-09-19T00:15:49;17.90;99.90
16273;DHT22;8244;50.044;9.006;2023-09-19T00:20:50;17.80;99.90
16273;DHT22;8244;50.044;9.006;2023-09-19T00:25:53;17.80;99.90
16273;DHT22;8244;50.044;9.006;2023-09-19T00:30:57;17.70;99.90
16273;DHT22;8244;50.044;9.006;2023-09-19T00:36:01;17.70;99.90
16273;DHT22;8244;50.044;9.006;2023-09-19T00:41:07;17.70;99.90
16273;DHT22;8244;50.044;9.006;2023-09-19T00:46:09;17.60;99.90
16273;DHT22;8244;50.044;9.006;2023-09-19T00:51:14;17.60;99.90
16273;DHT22;8244;50.044;9.006;2023-09-19T00:56:21;17.60;99.90
16273;DHT22;8244;50.044;9.006;2023-09-19T01:01:23;17.60;99.90
16273;DHT22;8244;50.044;9.006;2023-09-19T01:06:27;17.60;99.90
16273;DHT22;8244;50.044;9.006;2023-09-19T01:11:35;17.60;99.90
16273;DHT22;8244;50.044;9.006;2023-09-19T01:16:46;17.60;99.90
16273;DHT22;8244;50.044;9.006;2023-09-19T01:21:57;17.60;99.90
16273;DHT22;8244;50.044;9.006;2023-09-19T01:27:23;17.60;99.90
16273;DHT22;8244;50.044;9.006;2023-09-19T01:32:29;17.60;99.90
16273;DHT22;8244;50.044;9.006;2023-09-19T01:37:33;17.60;99.90
16273;DHT22;8244;50.044;9.006;2023-09-19T01:42:39;17.50;99.90
16273;DHT22;8244;50.044;9.006;2023-09-19T01:47:48;17.50;99.90
16273;DHT22;8244;50.044;9.006;2023-09-19T01:52:57;17.60;99.90
16273;DHT22;8244;50.044;9.006;2023-09-19T01:58:06;17.60;99.90
16273;DHT22;8244;50.044;9.006;2023-09-19T02:03:10;17.60;99.90
16273;DHT22;8244;50.044;9.006;2023-09-19T02:08:16;17.60;99.90
16273;DHT22;8244;50.044;9.006;2023-09-19T02:13:19;17.60;99.90
16273;DHT22;8244;50.044;9.006;2023-09-19T02:18:22;17.60;99.90
16273;DHT22;8244;50.044;9.006;2023-09-19T02:23:24;17.70;99.90
16273;DHT22;8244;50.044;9.006;2023-09-19T02:28:26;17.70;99.90
16273;DHT22;8244;50.044;9.006;2023-09-19T02:33:31;17.70;99.90
16273;DHT22;8244;50.044;9.006;2023-09-19T02:38:34;17.70;99.90
16273;DHT22;8244;50.044;9.006;2023-09-19T02:43:35;17.60;99.90
16273;DHT22;8244;50.044;9.006;2023-09-19T02:48:38;17.60;99.90
16273;DHT22;8244;50.044;9.006;2023-09-19T02:53:40;17.60;99.90
16273;DHT22;8244;50.044;9.006;2023-09-19T02:58:42;17.50;99.90
16273;DHT22;8244;50.044;9.006;2023-09-19T03:03:46;17.50;99.90
16273;DHT22;8244;50.044;9.006;2023-09-19T03:08:47;17.40;99.90
16273;DHT22;8244;50.044;9.006;2023-09-19T03:13:52;17.40;99.90
16273;DHT22;8244;50.044;9.006;2023-09-19T03:18:55;17.30;99.90
16273;DHT22;8244;50.044;9.006;2023-09-19T03:23:58;17.30;99.90
16273;DHT22;8244;50.044;9.006;2023-09-19T03:29:03;17.20;99.90
16273;DHT22;8244;50.044;9.006;2023-09-19T03:34:10;17.20;99.90
16273;DHT22;8244;50.044;9.006;2023-09-19T03:39:11;17.10;99.90
16273;DHT22;8244;50.044;9.006;2023-09-19T03:44:15;17.00;99.90
16273;DHT22;8244;50.044;9.006;2023-09-19T03:49:18;17.00;99.90
16273;DHT22;8244;50.044;9.006;2023-09-19T03:54:19;16.90;99.90
16273;DHT22;8244;50.044;9.006;2023-09-19T03:59:21;16.80;99.90
16273;DHT22;8244;50.044;9.006;2023-09-19T04:04:24;16.80;99.90
16273;DHT22;8244;50.044;9.006;2023-09-19T04:09:26;16.70;99.90
16273;DHT22;8244;50.044;9.006;2023-09-19T04:14:28;16.60;99.90
16273;DHT22;8244;50.044;9.006;2023-09-19T04:19:31;16.50;99.90
16273;DHT22;8244;50.044;9.006;2023-09-19T04:24:32;16.50;99.90
16273;DHT22;8244;50.044;9.006;2023-09-19T04:29:34;16.40;99.90
16273;DHT22;8244;50.044;9.006;2023-09-19T04:34:39;16.30;99.90
16273;DHT22;8244;50.044;9.006;2023-09-19T04:39:41;16.30;99.90
16273;DHT22;8244;50.044;9.006;2023-09-19T04:44:43;16.20;99.90
16273;DHT22;8244;50.044;9.006;2023-09-19T04:49:47;16.20;99.90
16273;DHT22;8244;50.044;9.006;2023-09-19T04:54:49;16.10;99.90
16273;DHT22;8244;50.044;9.006;2023-09-19T04:59:51;16.10;99.90
16273;DHT22;8244;50.044;9.006;2023-09-19T05:04:54;16.00;99.90
16273;DHT22;8244;50.044;9.006;2023-09-19T05:09:56;16.00;99.90
16273;DHT22;8244;50.044;9.006;2023-09-19T05:14:58;16.10;99.90
16273;DHT22;8244;50.044;9.006;2023-09-19T05:20:01;16.10;99.90
16273;DHT22;8244;50.044;9.006;2023-09-19T05:25:15;16.10;99.90
16273;DHT22;8244;50.044;9.006;2023-09-19T05:30:18;16.20;99.90
16273;DHT22;8244;50.044;9.006;2023-09-19T05:35:22;16.20;99.90
16273;DHT22;8244;50.044;9.006;2023-09-19T05:40:25;16.10;99.90
16273;DHT22;8244;50.044;9.006;2023-09-19T05:45:27;16.20;99.90
16273;DHT22;8244;50.044;9.006;2023-09-19T05:50:30;16.20;99.90
16273;DHT22;8244;50.044;9.006;2023-09-19T05:55:33;16.20;99.90
16273;DHT22;8244;50.044;9.006;2023-09-19T06:00:36;16.20;99.90
16273;DHT22;8244;50.044;9.006;2023-09-19T06:05:39;16.30;99.90
16273;DHT22;8244;50.044;9.006;2023-09-19T06:10:42;16.40;99.90
16273;DHT22;8244;50.044;9.006;2023-09-19T06:15:44;16.50;99.90
16273;DHT22;8244;50.044;9.006;2023-09-19T06:20:48;16.60;99.90
16273;DHT22;8244;50.044;9.006;2023-09-19T06:25:51;16.70;99.90
16273;DHT22;8244;50.044;9.006;2023-09-19T06:30:53;16.80;99.90
16273;DHT22;8244;50.044;9.006;2023-09-19T06:35:57;16.90;99.90
16273;DHT22;8244;50.044;9.006;2023-09-19T06:41:00;17.00;99.90
16273;DHT22;8244;50.044;9.006;2023-09-19T06:46:04;17.10;99.90
16273;DHT22;8244;50.044;9.006;2023-09-19T06:51:09;17.20;99.90
16273;DHT22;8244;50.044;9.006;2023-09-19T06:56:10;17.30;99.90
16273;DHT22;8244;50.044;9.006;2023-09-19T07:01:12;17.40;99.90
16273;DHT22;8244;50.044;9.006;2023-09-19T07:06:17;17.40;99.90
16273;DHT22;8244;50.044;9.006;2023-09-19T07:11:19;17.50;99.90
16273;DHT22;8244;50.044;9.006;2023-09-19T07:16:22;17.60;99.90
16273;DHT22;8244;50.044;9.006;2023-09-19T07:21:31;17.70;99.90
16273;DHT22;8244;50.044;9.006;2023-09-19T07:26:36;17.90;99.90
16273;DHT22;8244;50.044;9.006;2023-09-19T07:31:37;18.00;99.90
16273;DHT22;8244;50.044;9.006;2023-09-19T07:36:40;18.30;99.90
16273;DHT22;8244;50.044;9.006;2023-09-19T07:41:42;18.20;99.90
16273;DHT22;8244;50.044;9.006;2023-09-19T07:46:44;18.40;99.90
16273;DHT22;8244;50.044;9.006;2023-09-19T07:51:47;18.50;99.90
16273;DHT22;8244;50.044;9.006;2023-09-19T07:56:49;18.70;99.90
16273;DHT22;8244;50.044;9.006;2023-09-19T08:01:51;18.70;99.90
16273;DHT22;8244;50.044;9.006;2023-09-19T08:06:54;18.70;99.90
16273;DHT22;8244;50.044;9.006;2023-09-19T08:11:56;18.70;99.90
16273;DHT22;8244;50.044;9.006;2023-09-19T08:16:59;18.70;99.90
16273;DHT22;8244;50.044;9.006;2023-09-19T08:22:02;18.90;99.90
16273;DHT22;8244;50.044;9.006;2023-09-19T08:27:04;19.10;99.90
16273;DHT22;8244;50.044;9.006;2023-09-19T08:32:10;19.50;99.90
16273;DHT22;8244;50.044;9.006;2023-09-19T08:37:13;19.50;99.90
16273;DHT22;8244;50.044;9.006;2023-09-19T08:42:15;19.40;99.90
16273;DHT22;8244;50.044;9.006;2023-09-19T08:47:24;19.50;99.90
16273;DHT22;8244;50.044;9.006;2023-09-19T08:52:34;19.50;99.90
16273;DHT22;8244;50.044;9.006;2023-09-19T08:57:39;19.90;99.90
16273;DHT22;8244;50.044;9.006;2023-09-19T09:02:44;20.20;99.90
16273;DHT22;8244;50.044;9.006;2023-09-19T09:07:47;20.20;99.90
16273;DHT22;8244;50.044;9.006;2023-09-19T09:12:51;20.40;99.90
16273;DHT22;8244;50.044;9.006;2023-09-19T09:17:54;20.20;99.90
16273;DHT22;8244;50.044;9.006;2023-09-19T09:22:59;20.40;99.90
16273;DHT22;8244;50.044;9.006;2023-09-19T09:28:04;20.80;99.90
16273;DHT22;8244;50.044;9.006;2023-09-19T09:33:11;21.40;99.90
16273;DHT22;8244;50.044;9.006;2023-09-19T09:38:15;22.10;99.90
16273;DHT22;8244;50.044;9.006;2023-09-19T09:43:26;22.10;97.10
16273;DHT22;8244;50.044;9.006;2023-09-19T09:48:29;22.20;97.80
16273;DHT22;8244;50.044;9.006;2023-09-19T09:53:33;22.00;96.60
16273;DHT22;8244;50.044;9.006;2023-09-19T09:58:38;22.30;95.70
16273;DHT22;8244;50.044;9.006;2023-09-19T10:03:57;22.30;96.00
16273;DHT22;8244;50.044;9.006;2023-09-19T10:09:03;22.20;94.80
16273;DHT22;8244;50.044;9.006;2023-09-19T10:14:13;22.20;97.20
16273;DHT22;8244;50.044;9.006;2023-09-19T10:19:21;22.70;94.00
16273;DHT22;8244;50.044;9.006;2023-09-19T10:24:27;23.00;94.30
16273;DHT22;8244;50.044;9.006;2023-09-19T10:29:32;23.10;92.50
16273;DHT22;8244;50.044;9.006;2023-09-19T10:34:37;23.00;91.30
16273;DHT22;8244;50.044;9.006;2023-09-19T10:39:45;22.70;92.00
16273;DHT22;8244;50.044;9.006;2023-09-19T10:44:52;22.70;91.90
16273;DHT22;8244;50.044;9.006;2023-09-19T10:49:55;22.70;93.20
16273;DHT22;8244;50.044;9.006;2023-09-19T10:55:02;23.00;92.60
16273;DHT22;8244;50.044;9.006;2023-09-19T11:00:05;22.90;94.50
16273;DHT22;8244;50.044;9.006;2023-09-19T11:05:22;23.30;91.50
16273;DHT22;8244;50.044;9.006;2023-09-19T11:10:48;23.30;91.90
16273;DHT22;8244;50.044;9.006;2023-09-19T11:16:04;23.60;91.20
16273;DHT22;8244;50.044;9.006;2023-09-19T11:21:40;23.50;86.80
16273;DHT22;8244;50.044;9.006;2023-09-19T11:26:45;23.30;87.80
16273;DHT22;8244;50.044;9.006;2023-09-19T11:31:48;23.30;84.70
16273;DHT22;8244;50.044;9.006;2023-09-19T11:36:52;23.50;86.00
16273;DHT22;8244;50.044;9.006;2023-09-19T11:41:56;23.40;88.70
16273;DHT22;8244;50.044;9.006;2023-09-19T11:46:58;23.40;89.00
16273;DHT22;8244;50.044;9.006;2023-09-19T11:52:01;23.60;88.50
16273;DHT22;8244;50.044;9.006;2023-09-19T11:57:07;23.90;86.10
16273;DHT22;8244;50.044;9.006;2023-09-19T12:02:26;24.10;87.00
16273;DHT22;8244;50.044;9.006;2023-09-19T12:07:42;24.40;84.70
16273;DHT22;8244;50.044;9.006;2023-09-19T12:12:48;24.70;82.80
16273;DHT22;8244;50.044;9.006;2023-09-19T12:17:52;24.70;82.50
16273;DHT22;8244;50.044;9.006;2023-09-19T12:22:54;24.80;82.80
16273;DHT22;8244;50.044;9.006;2023-09-19T12:27:58;24.70;82.20
16273;DHT22;8244;50.044;9.006;2023-09-19T12:33:03;24.50;83.50
16273;DHT22;8244;50.044;9.006;2023-09-19T12:38:06;24.70;81.90
16273;DHT22;8244;50.044;9.006;2023-09-19T12:43:12;24.60;87.00
16273;DHT22;8244;50.044;9.006;2023-09-19T12:48:19;25.40;82.20
16273;DHT22;8244;50.044;9.006;2023-09-19T12:53:25;25.80;79.80
16273;DHT22;8244;50.044;9.006;2023-09-19T12:58:31;25.80;76.90
16273;DHT22;8244;50.044;9.006;2023-09-19T13:03:34;25.50;76.80
16273;DHT22;8244;50.044;9.006;2023-09-19T13:08:38;25.60;78.20
16273;DHT22;8244;50.044;9.006;2023-09-19T13:13:45;25.50;76.20
16273;DHT22;8244;50.044;9.006;2023-09-19T13:18:50;25.30;80.20
16273;DHT22;8244;50.044;9.006;2023-09-19T13:23:54;25.20;77.40
16273;DHT22;8244;50.044;9.006;2023-09-19T13:29:01;25.10;78.20
16273;DHT22;8244;50.044;9.006;2023-09-19T13:34:02;25.20;74.70
16273;DHT22;8244;50.044;9.006;2023-09-19T13:39:04;24.90;75.80
16273;DHT22;8244;50.044;9.006;2023-09-19T13:44:10;24.60;76.40
16273;DHT22;8244;50.044;9.006;2023-09-19T13:49:12;24.40;76.90
16273;DHT22;8244;50.044;9.006;2023-09-19T13:54:14;24.30;77.50
16273;DHT22;8244;50.044;9.006;2023-09-19T13:59:17;24.50;76.80
16273;DHT22;8244;50.044;9.006;2023-09-19T14:04:19;24.10;78.20
16273;DHT22;8244;50.044;9.006;2023-09-19T14:09:21;24.20;78.30
16273;DHT22;8244;50.044;9.006;2023-09-19T14:14:25;24.00;80.50
16273;DHT22;8244;50.044;9.006;2023-09-19T14:19:27;24.00;80.20
16273;DHT22;8244;50.044;9.006;2023-09-19T14:24:29;23.80;81.80
16273;DHT22;8244;50.044;9.006;2023-09-19T14:29:32;23.90;80.30
16273;DHT22;8244;50.044;9.006;2023-09-19T14:34:34;23.70;80.50
16273;DHT22;8244;50.044;9.006;2023-09-19T14:39:37;23.60;81.00
16273;DHT22;8244;50.044;9.006;2023-09-19T14:44:41;23.70;80.50
16273;DHT22;8244;50.044;9.006;2023-09-19T14:49:43;23.60;82.30
16273;DHT22;8244;50.044;9.006;2023-09-19T14:54:45;23.90;82.70
16273;DHT22;8244;50.044;9.006;2023-09-19T14:59:48;23.80;83.00
16273;DHT22;8244;50.044;9.006;2023-09-19T15:04:49;23.50;83.90
16273;DHT22;8244;50.044;9.006;2023-09-19T15:09:51;23.30;83.30
16273;DHT22;8244;50.044;9.006;2023-09-19T15:14:54;23.30;84.60
16273;DHT22;8244;50.044;9.006;2023-09-19T15:19:56;23.40;84.50
16273;DHT22;8244;50.044;9.006;2023-09-19T15:24:58;23.40;85.00
16273;DHT22;8244;50.044;9.006;2023-09-19T15:30:02;23.50;84.60
16273;DHT22;8244;50.044;9.006;2023-09-19T15:35:05;23.40;85.70
16273;DHT22;8244;50.044;9.006;2023-09-19T15:40:10;23.30;85.30
16273;DHT22;8244;50.044;9.006;2023-09-19T15:45:14;23.30;86.40
16273;DHT22;8244;50.044;9.006;2023-09-19T15:50:16;23.30;88.00
16273;DHT22;8244;50.044;9.006;2023-09-19T15:55:18;23.20;87.50
16273;DHT22;8244;50.044;9.006;2023-09-19T16:00:21;23.10;87.00
16273;DHT22;8244;50.044;9.006;2023-09-19T16:05:22;23.10;88.10
16273;DHT22;8244;50.044;9.006;2023-09-19T16:10:24;23.10;88.00
16273;DHT22;8244;50.044;9.006;2023-09-19T16:15:27;23.00;88.80
16273;DHT22;8244;50.044;9.006;2023-09-19T16:20:30;22.70;89.60
16273;DHT22;8244;50.044;9.006;2023-09-19T16:25:33;22.60;90.00
16273;DHT22;8244;50.044;9.006;2023-09-19T16:30:36;22.50;90.50
16273;DHT22;8244;50.044;9.006;2023-09-19T16:35:39;22.60;90.60
16273;DHT22;8244;50.044;9.006;2023-09-19T16:40:51;22.40;90.90
16273;DHT22;8244;50.044;9.006;2023-09-19T16:45:58;22.40;90.90
16273;DHT22;8244;50.044;9.006;2023-09-19T16:51:02;22.40;91.30
16273;DHT22;8244;50.044;9.006;2023-09-19T16:56:05;22.30;91.30
16273;DHT22;8244;50.044;9.006;2023-09-19T17:01:12;22.30;91.70
16273;DHT22;8244;50.044;9.006;2023-09-19T17:06:15;22.30;92.00
16273;DHT22;8244;50.044;9.006;2023-09-19T17:11:18;22.10;91.80
16273;DHT22;8244;50.044;9.006;2023-09-19T17:16:22;22.10;92.20
16273;DHT22;8244;50.044;9.006;2023-09-19T17:21:25;21.90;92.30
16273;DHT22;8244;50.044;9.006;2023-09-19T17:26:27;21.90;92.60
16273;DHT22;8244;50.044;9.006;2023-09-19T17:31:31;21.70;93.00
16273;DHT22;8244;50.044;9.006;2023-09-19T17:36:33;21.50;93.40
16273;DHT22;8244;50.044;9.006;2023-09-19T17:41:36;21.40;93.50
16273;DHT22;8244;50.044;9.006;2023-09-19T17:46:39;21.30;93.90
16273;DHT22;8244;50.044;9.006;2023-09-19T17:51:41;21.10;94.30
16273;DHT22;8244;50.044;9.006;2023-09-19T17:56:42;20.90;94.60
16273;DHT22;8244;50.044;9.006;2023-09-19T18:01:45;20.80;95.00
16273;DHT22;8244;50.044;9.006;2023-09-19T18:06:48;20.70;95.20
16273;DHT22;8244;50.044;9.006;2023-09-19T18:11:50;20.60;95.60
16273;DHT22;8244;50.044;9.006;2023-09-19T18:16:53;20.50;95.90
16273;DHT22;8244;50.044;9.006;2023-09-19T18:21:58;20.30;96.20
16273;DHT22;8244;50.044;9.006;2023-09-19T18:27:04;20.20;96.60
16273;DHT22;8244;50.044;9.006;2023-09-19T18:32:07;20.00;96.90
16273;DHT22;8244;50.044;9.006;2023-09-19T18:37:09;19.90;97.20
16273;DHT22;8244;50.044;9.006;2023-09-19T18:42:11;19.80;97.80
16273;DHT22;8244;50.044;9.006;2023-09-19T18:47:14;19.70;97.90
16273;DHT22;8244;50.044;9.006;2023-09-19T18:52:16;19.60;98.20
16273;DHT22;8244;50.044;9.006;2023-09-19T18:57:18;19.50;98.40
16273;DHT22;8244;50.044;9.006;2023-09-19T19:02:21;19.40;99.20
16273;DHT22;8244;50.044;9.006;2023-09-19T19:07:23;19.20;99.40
16273;DHT22;8244;50.044;9.006;2023-09-19T19:12:26;19.10;99.90
16273;DHT22;8244;50.044;9.006;2023-09-19T19:17:32;18.90;99.90
16273;DHT22;8244;50.044;9.006;2023-09-19T19:22:34;18.70;99.90
16273;DHT22;8244;50.044;9.006;2023-09-19T19:27:37;18.60;99.90
16273;DHT22;8244;50.044;9.006;2023-09-19T19:32:40;18.40;99.90
16273;DHT22;8244;50.044;9.006;2023-09-19T19:37:43;18.30;99.90
16273;DHT22;8244;50.044;9.006;2023-09-19T19:42:44;18.10;99.90
16273;DHT22;8244;50.044;9.006;2023-09-19T19:47:47;18.00;99.90
16273;DHT22;8244;50.044;9.006;2023-09-19T19:52:50;17.90;99.90
16273;DHT22;8244;50.044;9.006;2023-09-19T19:57:53;17.80;99.90
16273;DHT22;8244;50.044;9.006;2023-09-19T20:02:56;17.70;99.90
16273;DHT22;8244;50.044;9.006;2023-09-19T20:07:58;17.60;99.90
16273;DHT22;8244;50.044;9.006;2023-09-19T20:13:00;17.50;99.90
16273;DHT22;8244;50.044;9.006;2023-09-19T20:18:09;17.40;99.90
16273;DHT22;8244;50.044;9.006;2023-09-19T20:23:11;17.30;99.90
16273;DHT22;8244;50.044;9.006;2023-09-19T20:28:13;17.10;99.90
16273;DHT22;8244;50.044;9.006;2023-09-19T20:33:16;17.00;99.90
16273;DHT22;8244;50.044;9.006;2023-09-19T20:38:18;16.90;99.90
16273;DHT22;8244;50.044;9.006;2023-09-19T20:43:20;16.80;99.90
16273;DHT22;8244;50.044;9.006;2023-09-19T20:48:23;16.70;99.90
16273;DHT22;8244;50.044;9.006;2023-09-19T20:53:24;16.60;99.90
16273;DHT22;8244;50.044;9.006;2023-09-19T20:58:26;16.50;99.90
16273;DHT22;8244;50.044;9.006;2023-09-19T21:03:29;16.40;99.90
16273;DHT22;8244;50.044;9.006;2023-09-19T21:08:31;16.30;99.90
16273;DHT22;8244;50.044;9.006;2023-09-19T21:13:33;16.20;99.90
16273;DHT22;8244;50.044;9.006;2023-09-19T21:18:36;16.10;99.90
16273;DHT22;8244;50.044;9.006;2023-09-19T21:23:39;16.10;99.90
16273;DHT22;8244;50.044;9.006;2023-09-19T21:28:41;16.00;99.90
16273;DHT22;8244;50.044;9.006;2023-09-19T21:33:45;16.00;99.90
16273;DHT22;8244;50.044;9.006;2023-09-19T21:38:47;15.90;99.90
16273;DHT22;8244;50.044;9.006;2023-09-19T21:43:49;15.90;99.90
16273;DHT22;8244;50.044;9.006;2023-09-19T21:48:53;15.80;99.90
16273;DHT22;8244;50.044;9.006;2023-09-19T21:53:56;15.80;99.90
16273;DHT22;8244;50.044;9.006;2023-09-19T21:58:58;15.80;99.90
16273;DHT22;8244;50.044;9.006;2023-09-19T22:04:01;15.80;99.90
16273;DHT22;8244;50.044;9.006;2023-09-19T22:09:03;15.80;99.90
16273;DHT22;8244;50.044;9.006;2023-09-19T22:14:05;15.70;99.90
16273;DHT22;8244;50.044;9.006;2023-09-19T22:19:08;15.70;99.90
16273;DHT22;8244;50.044;9.006;2023-09-19T22:24:11;15.60;99.90
16273;DHT22;8244;50.044;9.006;2023-09-19T22:29:16;15.60;99.90
16273;DHT22;8244;50.044;9.006;2023-09-19T22:34:19;15.60;99.90
16273;DHT22;8244;50.044;9.006;2023-09-19T22:39:21;15.50;99.90
16273;DHT22;8244;50.044;9.006;2023-09-19T22:44:25;15.50;99.90
16273;DHT22;8244;50.044;9.006;2023-09-19T22:49:29;15.50;99.90
16273;DHT22;8244;50.044;9.006;2023-09-19T22:54:32;15.50;99.90
16273;DHT22;8244;50.044;9.006;2023-09-19T22:59:36;15.60;99.90
16273;DHT22;8244;50.044;9.006;2023-09-19T23:04:42;15.60;99.90
16273;DHT22;8244;50.044;9.006;2023-09-19T23:09:44;15.60;99.90
16273;DHT22;8244;50.044;9.006;2023-09-19T23:14:47;15.60;99.90
16273;DHT22;8244;50.044;9.006;2023-09-19T23:19:50;15.60;99.90
16273;DHT22;8244;50.044;9.006;2023-09-19T23:24:57;15.70;99.90
16273;DHT22;8244;50.044;9.006;2023-09-19T23:30:13;15.70;99.90
16273;DHT22;8244;50.044;9.006;2023-09-19T23:35:21;15.80;99.90
16273;DHT22;8244;50.044;9.006;2023-09-19T23:40:23;15.80;99.90
16273;DHT22;8244;50.044;9.006;2023-09-19T23:45:27;15.90;99.90
16273;DHT22;8244;50.044;9.006;2023-09-19T23:50:31;15.90;99.90
16273;DHT22;8244;50.044;9.006;2023-09-19T23:55:35;16.00;99.90
